createdAt,value
2023-01-22T00:02:30.602Z,13.35
2023-01-22T00:05:04.761Z,11.68
2023-01-22T00:07:38.327Z,13.18
2023-01-22T00:10:14.678Z,10.55
2023-01-22T00:12:48.284Z,11.75
2023-01-22T00:15:22.284Z,12.85
2023-01-22T00:17:55.852Z,10.45
2023-01-22T00:20:29.924Z,12.73
2023-01-22T00:23:03.530Z,9.75
2023-01-22T00:25:38.671Z,8.35
2023-01-22T00:28:13.257Z,13.23
2023-01-22T00:30:46.872Z,14.07
2023-01-22T00:33:21.027Z,12.63
2023-01-22T00:35:54.954Z,14.45
2023-01-22T00:38:28.655Z,13.90
2023-01-22T00:41:05.004Z,12.65
2023-01-22T00:43:40.557Z,13.68
2023-01-22T00:46:16.532Z,16.30
2023-01-22T00:48:51.201Z,13.80
2023-01-22T00:51:24.989Z,14.93
2023-01-22T00:53:58.600Z,16.92
2023-01-22T00:56:34.034Z,15.82
2023-01-22T00:59:10.531Z,10.95
2023-01-22T01:01:44.601Z,14.07
2023-01-22T01:04:18.204Z,12.15
2023-01-22T01:06:51.857Z,16.35
2023-01-22T01:09:25.920Z,9.52
2023-01-22T01:12:01.940Z,12.18
2023-01-22T01:14:35.715Z,11.23
2023-01-22T01:17:10.504Z,14.25
2023-01-22T01:19:44.585Z,14.13
2023-01-22T01:22:18.679Z,13.43
2023-01-22T01:24:53.126Z,12.30
2023-01-22T01:27:31.775Z,13.75
2023-01-22T01:30:06.308Z,18.15
2023-01-22T01:32:41.076Z,14.50
2023-01-22T01:35:15.053Z,11.85
2023-01-22T01:37:49.058Z,14.13
2023-01-22T01:40:22.827Z,11.98
2023-01-22T01:42:58.271Z,14.60
2023-01-22T01:45:33.753Z,16.20
2023-01-22T01:48:13.071Z,16.42
2023-01-22T01:50:52.991Z,13.98
2023-01-22T01:53:27.343Z,14.80
2023-01-22T01:56:03.336Z,11.45
2023-01-22T01:58:41.126Z,13.88
2023-01-22T02:01:17.961Z,11.50
2023-01-22T02:03:52.380Z,14.45
2023-01-22T02:06:26.881Z,12.00
2023-01-22T02:09:01.477Z,18.67
2023-01-22T02:11:35.847Z,20.30
2023-01-22T02:14:15.509Z,14.32
2023-01-22T02:16:49.193Z,16.33
2023-01-22T02:19:23.258Z,15.07
2023-01-22T02:21:58.247Z,13.95
2023-01-22T02:24:34.431Z,17.20
2023-01-22T02:27:09.498Z,16.63
2023-01-22T02:29:43.324Z,18.10
2023-01-22T02:32:18.197Z,15.55
2023-01-22T02:34:52.782Z,18.90
2023-01-22T02:37:27.916Z,15.43
2023-01-22T02:40:02.982Z,20.52
2023-01-22T02:42:37.540Z,15.95
2023-01-22T02:45:12.417Z,14.40
2023-01-22T02:47:46.389Z,14.70
2023-01-22T02:50:20.549Z,20.63
2023-01-22T02:52:55.853Z,18.08
2023-01-22T02:55:29.505Z,17.45
2023-01-22T02:58:04.208Z,17.13
2023-01-22T03:00:39.528Z,22.92
2023-01-22T03:03:15.650Z,17.52
2023-01-22T03:05:51.266Z,23.02
2023-01-22T03:08:27.396Z,16.98
2023-01-22T03:11:01.161Z,22.60
2023-01-22T03:13:51.769Z,18.45
2023-01-22T03:16:43.528Z,19.70
2023-01-22T03:19:37.251Z,20.75
2023-01-22T03:22:15.860Z,19.20
2023-01-22T03:24:52.722Z,20.15
2023-01-22T03:27:31.693Z,19.52
2023-01-22T03:30:06.117Z,19.17
2023-01-22T03:32:42.101Z,16.73
2023-01-22T03:35:17.016Z,19.80
2023-01-22T03:38:07.391Z,18.55
2023-01-22T03:40:42.687Z,14.35
2023-01-22T03:43:16.779Z,16.35
2023-01-22T03:45:51.043Z,15.73
2023-01-22T03:48:26.691Z,16.42
2023-01-22T03:51:06.478Z,17.15
2023-01-22T03:53:40.596Z,17.70
2023-01-22T03:56:17.607Z,20.92
2023-01-22T03:58:52.322Z,21.73
2023-01-22T04:01:28.465Z,19.65
2023-01-22T04:04:03.578Z,18.17
2023-01-22T04:06:38.479Z,15.60
2023-01-22T04:09:12.617Z,20.88
2023-01-22T04:11:54.159Z,18.15
2023-01-22T04:14:27.978Z,15.63
2023-01-22T04:17:04.559Z,21.40
2023-01-22T04:19:56.073Z,20.02
2023-01-22T04:22:51.914Z,18.17
2023-01-22T04:25:26.020Z,19.40
2023-01-22T04:28:01.195Z,14.73
2023-01-22T04:30:35.321Z,16.27
2023-01-22T04:33:27.300Z,15.68
2023-01-22T04:36:14.381Z,14.80
2023-01-22T04:38:49.227Z,13.98
2023-01-22T04:41:22.811Z,14.85
2023-01-22T04:43:58.070Z,11.75
2023-01-22T04:46:32.965Z,18.27
2023-01-22T04:49:07.756Z,16.45
2023-01-22T04:51:42.070Z,15.95
2023-01-22T04:54:15.807Z,12.43
2023-01-22T04:56:49.369Z,13.15
2023-01-22T04:59:25.018Z,12.18
2023-01-22T05:01:58.859Z,15.07
2023-01-22T05:04:32.707Z,12.52
2023-01-22T05:07:06.351Z,15.38
2023-01-22T05:09:40.524Z,11.23
2023-01-22T05:12:14.166Z,11.77
2023-01-22T05:14:50.615Z,17.70
2023-01-22T05:17:24.221Z,13.85
2023-01-22T05:19:57.917Z,13.35
2023-01-22T05:22:32.854Z,11.57
2023-01-22T05:25:07.664Z,10.85
2023-01-22T05:27:42.233Z,10.13
2023-01-22T05:30:23.414Z,16.05
2023-01-22T05:33:22.678Z,13.20
2023-01-22T05:36:00.251Z,16.38
2023-01-22T05:38:34.687Z,15.00
2023-01-22T05:41:08.515Z,11.90
2023-01-22T05:43:45.075Z,15.63
2023-01-22T05:46:26.016Z,14.82
2023-01-22T05:49:06.242Z,13.95
2023-01-22T05:51:40.944Z,14.95
2023-01-22T05:54:14.817Z,13.85
2023-01-22T05:56:50.056Z,13.85
2023-01-22T05:59:24.250Z,13.18
2023-01-22T06:02:04.877Z,12.38
2023-01-22T06:04:40.905Z,12.70
2023-01-22T06:07:24.990Z,12.63
2023-01-22T06:09:59.605Z,12.98
2023-01-22T06:12:33.209Z,14.20
2023-01-22T06:15:07.793Z,13.15
2023-01-22T06:17:43.224Z,12.35
2023-01-22T06:20:17.741Z,11.48
2023-01-22T06:22:52.395Z,15.65
2023-01-22T06:25:25.987Z,12.10
2023-01-22T06:28:12.610Z,10.35
2023-01-22T06:30:46.813Z,10.68
2023-01-22T06:33:21.929Z,14.50
2023-01-22T06:35:56.319Z,14.38
2023-01-22T06:38:30.557Z,11.32
2023-01-22T06:41:06.640Z,10.98
2023-01-22T06:43:40.469Z,12.43
2023-01-22T06:46:14.224Z,16.13
2023-01-22T06:49:12.732Z,14.70
2023-01-22T06:51:46.728Z,23.85
2023-01-22T06:54:38.749Z,13.25
2023-01-22T06:57:12.380Z,16.02
2023-01-22T06:59:46.986Z,13.48
2023-01-22T07:02:21.548Z,22.00
2023-01-22T07:04:56.487Z,16.05
2023-01-22T07:07:30.005Z,21.17
2023-01-22T07:10:03.508Z,15.10
2023-01-22T07:12:37.292Z,11.70
2023-01-22T07:15:11.569Z,11.15
2023-01-22T07:17:45.556Z,12.75
2023-01-22T07:20:21.499Z,11.35
2023-01-22T07:22:59.212Z,12.52
2023-01-22T07:25:33.522Z,14.02
2023-01-22T07:28:08.226Z,13.43
2023-01-22T07:30:43.270Z,13.82
2023-01-22T07:33:17.954Z,8.85
2023-01-22T07:35:57.586Z,20.65
2023-01-22T07:38:31.460Z,14.27
2023-01-22T07:41:14.125Z,11.75
2023-01-22T07:43:56.334Z,15.32
2023-01-22T07:46:30.176Z,11.98
2023-01-22T07:49:03.805Z,12.73
2023-01-22T07:51:39.106Z,15.18
2023-01-22T07:54:12.819Z,14.15
2023-01-22T07:56:46.398Z,19.52
2023-01-22T07:59:20.102Z,15.75
2023-01-22T08:01:55.721Z,14.18
2023-01-22T08:04:29.854Z,12.15
2023-01-22T08:07:04.941Z,11.95
2023-01-22T08:09:38.705Z,14.85
2023-01-22T08:12:12.415Z,14.27
2023-01-22T08:14:46.518Z,17.02
2023-01-22T08:17:20.125Z,24.25
2023-01-22T08:19:53.914Z,12.73
2023-01-22T08:22:28.999Z,11.20
2023-01-22T08:25:02.914Z,14.20
2023-01-22T08:27:36.567Z,22.23
2023-01-22T08:30:12.421Z,19.58
2023-01-22T08:32:46.620Z,44.42
2023-01-22T08:35:20.187Z,28.05
2023-01-22T08:37:55.522Z,21.38
2023-01-22T08:40:31.240Z,22.23
2023-01-22T08:43:05.009Z,27.45
2023-01-22T08:45:39.045Z,18.58
2023-01-22T08:48:12.627Z,10.55
2023-01-22T08:50:46.310Z,11.10
2023-01-22T08:53:21.382Z,12.00
2023-01-22T08:55:55.292Z,13.68
2023-01-22T08:58:29.102Z,10.80
2023-01-22T09:01:02.666Z,12.27
2023-01-22T09:03:36.216Z,10.98
2023-01-22T09:06:10.163Z,12.45
2023-01-22T09:08:45.222Z,7.03
2023-01-22T09:11:18.943Z,9.25
2023-01-22T09:13:55.101Z,11.90
2023-01-22T09:16:29.392Z,10.50
2023-01-22T09:19:03.021Z,10.20
2023-01-22T09:21:37.736Z,13.73
2023-01-22T09:24:12.978Z,9.65
2023-01-22T09:26:46.541Z,10.77
2023-01-22T09:29:20.148Z,9.43
2023-01-22T09:31:53.777Z,7.40
2023-01-22T09:34:27.625Z,9.00
2023-01-22T09:37:05.486Z,8.02
2023-01-22T09:39:40.530Z,13.80
2023-01-22T09:42:19.081Z,12.55
2023-01-22T09:44:57.599Z,8.95
2023-01-22T09:47:37.362Z,9.38
2023-01-22T09:50:18.900Z,13.75
2023-01-22T09:52:54.487Z,8.27
2023-01-22T09:55:32.651Z,12.13
2023-01-22T09:58:11.975Z,14.30
2023-01-22T10:00:50.175Z,34.70
2023-01-22T10:03:28.133Z,31.05
2023-01-22T10:06:06.191Z,16.13
2023-01-22T10:08:53.397Z,16.77
2023-01-22T10:11:28.760Z,20.17
2023-01-22T10:14:07.155Z,21.35
2023-01-22T10:16:40.716Z,12.40
2023-01-22T10:19:21.586Z,21.98
2023-01-22T10:22:00.054Z,23.75
2023-01-22T10:24:33.771Z,18.88
2023-01-22T10:27:16.406Z,18.55
2023-01-22T10:32:32.887Z,13.32
2023-01-22T10:35:08.981Z,10.90
2023-01-22T10:37:47.166Z,13.32
2023-01-22T10:40:24.669Z,11.55
2023-01-22T10:43:05.504Z,12.77
2023-01-22T10:45:39.276Z,12.43
2023-01-22T10:48:19.632Z,12.65
2023-01-22T10:51:03.976Z,24.92
2023-01-22T10:53:39.071Z,32.97
2023-01-22T10:56:13.595Z,27.65
2023-01-22T10:58:49.722Z,19.98
2023-01-22T11:01:31.006Z,20.70
2023-01-22T11:04:13.804Z,17.77
2023-01-22T11:06:51.883Z,11.00
2023-01-22T11:09:32.963Z,16.17
2023-01-22T11:12:15.353Z,14.02
2023-01-22T11:15:05.904Z,15.60
2023-01-22T11:17:44.057Z,12.75
2023-01-22T11:20:23.018Z,14.63
2023-01-22T11:23:06.853Z,18.65
2023-01-22T11:25:45.145Z,15.02
2023-01-22T11:28:29.659Z,11.57
2023-01-22T11:31:30.656Z,19.35
2023-01-22T11:34:46.084Z,16.42
2023-01-22T11:37:22.897Z,17.65
2023-01-22T11:40:22.838Z,14.75
2023-01-22T11:43:24.680Z,14.63
2023-01-22T11:46:13.364Z,11.77
2023-01-22T11:48:59.750Z,11.80
2023-01-22T11:51:37.575Z,13.05
2023-01-22T11:54:26.624Z,18.50
2023-01-22T11:57:16.568Z,19.48
2023-01-22T12:00:05.032Z,17.15
2023-01-22T12:03:16.005Z,13.63
2023-01-22T12:05:57.795Z,13.10
2023-01-22T12:08:43.494Z,15.10
2023-01-22T12:11:34.911Z,22.92
2023-01-22T12:14:28.937Z,17.05
2023-01-22T12:17:13.335Z,11.00
2023-01-22T12:20:14.276Z,10.20
2023-01-22T12:22:53.628Z,13.60
2023-01-22T12:25:37.629Z,10.20
2023-01-22T12:28:17.921Z,9.73
2023-01-22T12:30:57.731Z,12.60
2023-01-22T12:33:38.303Z,12.00
2023-01-22T12:36:17.644Z,12.77
2023-01-22T12:38:55.936Z,13.25
2023-01-22T12:41:45.614Z,17.27
2023-01-22T12:44:29.628Z,11.05
2023-01-22T12:47:10.160Z,11.05
2023-01-22T12:49:48.928Z,16.27
2023-01-22T12:52:46.629Z,12.65
2023-01-22T12:55:30.627Z,13.05
2023-01-22T12:58:05.307Z,12.55
2023-01-22T13:00:40.004Z,10.73
2023-01-22T13:03:31.811Z,9.52
2023-01-22T13:06:20.147Z,8.85
2023-01-22T13:08:55.604Z,7.88
2023-01-22T13:11:32.410Z,8.27
2023-01-22T13:14:19.282Z,15.55
2023-01-22T13:16:56.272Z,12.45
2023-01-22T13:19:40.223Z,18.92
2023-01-22T13:22:18.490Z,11.43
2023-01-22T13:24:55.657Z,11.20
2023-01-22T13:27:32.378Z,11.50
2023-01-22T13:30:10.778Z,12.25
2023-01-22T13:32:44.951Z,10.25
2023-01-22T13:35:20.091Z,8.13
2023-01-22T13:37:53.904Z,9.52
2023-01-22T13:40:36.987Z,12.43
2023-01-22T13:43:21.267Z,9.73
2023-01-22T13:45:56.907Z,14.85
2023-01-22T13:48:30.830Z,11.55
2023-01-22T13:51:18.712Z,11.68
2023-01-22T13:53:54.970Z,11.55
2023-01-22T13:56:30.576Z,12.45
2023-01-22T13:59:16.324Z,11.20
2023-01-22T14:01:50.718Z,9.25
2023-01-22T14:04:37.264Z,9.93
2023-01-22T14:07:17.930Z,10.57
2023-01-22T14:09:52.636Z,9.75
2023-01-22T14:12:30.411Z,6.70
2023-01-22T14:15:14.730Z,7.47
2023-01-22T14:17:50.584Z,12.57
2023-01-22T14:20:24.470Z,11.55
2023-01-22T14:22:58.344Z,13.75
2023-01-22T14:25:32.236Z,12.63
2023-01-22T14:28:07.840Z,13.32
2023-01-22T14:30:41.871Z,18.60
2023-01-22T14:33:21.940Z,13.13
2023-01-22T14:35:57.784Z,10.27
2023-01-22T14:38:31.808Z,15.40
2023-01-22T14:41:06.152Z,11.95
2023-01-22T14:43:41.476Z,9.27
2023-01-22T14:46:15.464Z,13.52
2023-01-22T14:48:49.704Z,13.10
2023-01-22T14:51:23.619Z,14.15
2023-01-22T14:53:58.850Z,17.92
2023-01-22T14:56:36.093Z,22.73
2023-01-22T14:59:11.746Z,16.23
2023-01-22T15:01:45.673Z,27.83
2023-01-22T15:04:19.411Z,28.33
2023-01-22T15:06:53.193Z,26.30
2023-01-22T15:09:27.131Z,23.73
2023-01-22T15:12:00.999Z,21.75
2023-01-22T15:14:36.209Z,17.67
2023-01-22T15:17:09.866Z,20.55
2023-01-22T15:19:43.514Z,15.50
2023-01-22T15:22:17.755Z,16.75
2023-01-22T15:24:51.343Z,13.23
2023-01-22T15:27:24.960Z,15.45
2023-01-22T15:30:00.047Z,17.63
2023-01-22T15:32:33.990Z,14.38
2023-01-22T15:35:08.412Z,14.65
2023-01-22T15:37:42.337Z,20.90
2023-01-22T15:40:19.936Z,14.18
2023-01-22T15:42:53.922Z,17.40
2023-01-22T15:45:30.734Z,17.50
2023-01-22T15:48:04.597Z,9.73
2023-01-22T15:50:38.272Z,12.45
2023-01-22T15:53:12.000Z,11.70
2023-01-22T15:55:50.470Z,22.95
2023-01-22T15:58:24.491Z,21.67
2023-01-22T16:01:00.272Z,24.95
2023-01-22T16:03:34.342Z,25.17
2023-01-22T16:06:12.980Z,57.35
2023-01-22T16:09:07.513Z,20.20
2023-01-22T16:11:41.311Z,119.38
2023-01-22T16:14:16.117Z,23.17
2023-01-22T16:16:51.422Z,16.00
2023-01-22T16:19:25.281Z,16.88
2023-01-22T16:21:58.975Z,12.95
2023-01-22T16:24:32.713Z,11.20
2023-01-22T16:27:07.974Z,13.63
2023-01-22T16:29:41.990Z,12.57
2023-01-22T16:32:17.232Z,14.27
2023-01-22T16:34:52.335Z,12.73
2023-01-22T16:37:26.045Z,11.73
2023-01-22T16:39:59.906Z,15.48
2023-01-22T16:42:34.729Z,15.10
2023-01-22T16:45:09.237Z,15.80
2023-01-22T16:47:45.248Z,12.65
2023-01-22T16:50:21.010Z,15.15
2023-01-22T16:52:56.723Z,15.68
2023-01-22T16:55:30.914Z,14.43
2023-01-22T16:58:04.785Z,16.60
2023-01-22T17:00:38.896Z,16.15
2023-01-22T17:03:16.706Z,15.05
2023-01-22T17:05:50.358Z,20.38
2023-01-22T17:08:24.090Z,22.25
2023-01-22T17:10:58.093Z,16.60
2023-01-22T17:13:32.749Z,24.20
2023-01-22T17:16:32.239Z,20.92
2023-01-22T17:19:07.659Z,22.23
2023-01-22T17:21:46.429Z,24.00
2023-01-22T17:24:23.714Z,22.52
2023-01-22T17:27:02.344Z,20.85
2023-01-22T17:29:37.589Z,28.52
2023-01-22T17:32:13.010Z,18.92
2023-01-22T17:34:50.814Z,16.08
2023-01-22T17:37:26.013Z,19.27
2023-01-22T17:40:00.348Z,22.92
2023-01-22T17:42:34.199Z,17.80
2023-01-22T17:45:09.620Z,17.85
2023-01-22T17:47:45.413Z,22.77
2023-01-22T17:50:24.733Z,25.63
2023-01-22T17:52:58.591Z,142.45
2023-01-22T17:55:32.344Z,106.72
2023-01-22T17:58:06.048Z,59.90
2023-01-22T18:00:42.227Z,47.05
2023-01-22T18:03:28.459Z,37.28
2023-01-22T18:06:06.433Z,35.58
2023-01-22T18:08:48.463Z,40.08
2023-01-22T18:11:42.844Z,30.70
2023-01-22T18:14:25.584Z,32.42
2023-01-22T18:17:01.613Z,24.27
2023-01-22T18:19:54.041Z,20.25
2023-01-22T18:22:29.406Z,20.80
2023-01-22T18:25:03.458Z,25.25
2023-01-22T18:27:43.389Z,20.58
2023-01-22T18:30:18.417Z,23.80
2023-01-22T18:32:52.431Z,19.52
2023-01-22T18:35:27.252Z,44.65
2023-01-22T18:38:03.199Z,28.50
2023-01-22T18:40:37.877Z,21.70
2023-01-22T18:43:12.582Z,22.75
2023-01-22T18:45:46.524Z,26.42
2023-01-22T18:48:21.534Z,21.20
2023-01-22T18:50:57.076Z,28.60
2023-01-22T18:53:32.811Z,23.50
2023-01-22T18:56:08.215Z,35.30
2023-01-22T18:58:44.719Z,26.90
2023-01-22T19:01:21.471Z,24.67
2023-01-22T19:03:58.414Z,29.20
2023-01-22T19:06:40.060Z,52.67
2023-01-22T19:09:17.415Z,36.90
2023-01-22T19:11:53.455Z,33.35
2023-01-22T19:14:29.180Z,27.30
2023-01-22T19:17:07.654Z,27.58
2023-01-22T19:19:45.288Z,34.15
2023-01-22T19:22:19.320Z,28.42
2023-01-22T19:24:58.864Z,31.23
2023-01-22T19:27:32.740Z,30.20
2023-01-22T19:30:08.160Z,28.48
2023-01-22T19:35:50.052Z,31.40
2023-01-22T19:38:25.016Z,32.28
2023-01-22T19:41:01.841Z,28.20
2023-01-22T19:43:36.262Z,29.60
2023-01-22T19:46:14.344Z,27.55
2023-01-22T19:48:51.051Z,29.00
2023-01-22T19:51:27.007Z,26.02
2023-01-22T19:54:01.825Z,25.17
2023-01-22T19:56:40.135Z,36.58
2023-01-22T19:59:16.454Z,28.98
2023-01-22T20:01:53.980Z,31.52
2023-01-22T20:04:31.913Z,56.95
2023-01-22T20:07:07.170Z,29.55
2023-01-22T20:09:41.667Z,28.40
2023-01-22T20:12:17.613Z,39.17
2023-01-22T20:14:52.076Z,34.10
2023-01-22T20:17:26.345Z,42.75
2023-01-22T20:20:00.826Z,29.15
2023-01-22T20:22:35.058Z,26.75
2023-01-22T20:25:10.886Z,57.28
2023-01-22T20:27:47.562Z,31.23
2023-01-22T20:30:21.734Z,54.60
2023-01-22T20:32:57.618Z,64.35
2023-01-22T20:35:32.228Z,42.83
2023-01-22T20:38:06.474Z,43.92
2023-01-22T20:40:42.220Z,49.50
2023-01-22T20:43:19.176Z,47.00
2023-01-22T20:46:01.922Z,47.38
2023-01-22T20:51:15.417Z,48.40
2023-01-22T20:53:53.816Z,54.55
2023-01-22T20:56:32.983Z,55.13
2023-01-22T20:59:11.495Z,160.15
2023-01-22T21:01:48.614Z,104.15
2023-01-22T21:04:23.562Z,42.65
2023-01-22T21:06:58.425Z,46.13
2023-01-22T21:09:32.878Z,90.70
2023-01-22T21:12:07.369Z,59.55
2023-01-22T21:14:43.195Z,62.03
2023-01-22T21:17:19.043Z,73.85
2023-01-22T21:19:55.399Z,73.43
2023-01-22T21:22:32.183Z,92.82
2023-01-22T21:25:06.623Z,44.97
2023-01-22T21:27:40.390Z,118.40
2023-01-22T21:30:16.425Z,60.67
2023-01-22T21:32:52.550Z,58.90
2023-01-22T21:35:26.639Z,80.35
2023-01-22T21:38:00.433Z,57.13
2023-01-22T21:40:34.887Z,78.85
2023-01-22T21:43:27.402Z,113.35
2023-01-22T21:46:20.292Z,42.72
2023-01-22T21:48:57.325Z,36.53
2023-01-22T21:51:32.373Z,55.90
2023-01-22T21:54:06.387Z,115.72
2023-01-22T21:56:40.236Z,59.55
2023-01-22T21:59:14.234Z,83.38
2023-01-22T22:01:50.485Z,83.35
2023-01-22T22:04:26.013Z,111.55
2023-01-22T22:07:00.120Z,44.58
2023-01-22T22:09:34.126Z,84.07
2023-01-22T22:12:08.446Z,141.75
2023-01-22T22:14:42.147Z,93.78
2023-01-22T22:17:17.246Z,38.83
2023-01-22T22:19:50.836Z,30.45
2023-01-22T22:22:25.067Z,67.47
2023-01-22T22:24:58.870Z,78.53
2023-01-22T22:27:32.643Z,90.82
2023-01-22T22:30:07.182Z,37.85
2023-01-22T22:32:42.263Z,90.07
2023-01-22T22:35:16.135Z,86.10
2023-01-22T22:37:49.902Z,71.63
2023-01-22T22:40:23.945Z,79.20
2023-01-22T22:42:57.693Z,89.47
2023-01-22T22:45:33.255Z,37.38
2023-01-22T22:48:08.614Z,24.90
2023-01-22T22:50:43.375Z,27.25
2023-01-22T22:53:17.353Z,37.47
2023-01-22T22:55:51.048Z,25.77
2023-01-22T22:58:24.694Z,27.05
2023-01-22T23:00:58.548Z,27.90
2023-01-22T23:03:35.164Z,24.10
2023-01-22T23:06:12.108Z,29.17
2023-01-22T23:08:52.456Z,43.05
2023-01-22T23:11:28.289Z,24.25
2023-01-22T23:14:02.991Z,32.63
2023-01-22T23:16:39.071Z,29.55
2023-01-22T23:19:17.866Z,63.42
2023-01-22T23:21:54.466Z,61.75
2023-01-22T23:24:28.938Z,45.47
2023-01-22T23:27:02.585Z,65.05
2023-01-22T23:29:36.506Z,82.53
2023-01-22T23:32:10.151Z,61.58
2023-01-22T23:34:45.309Z,75.00
2023-01-22T23:37:18.865Z,43.13
2023-01-22T23:39:52.503Z,23.98
2023-01-22T23:42:26.167Z,34.08
2023-01-22T23:45:11.946Z,50.95
2023-01-22T23:47:46.708Z,27.08
2023-01-22T23:50:22.084Z,30.88
2023-01-22T23:57:22.625Z,25.33
2023-01-22T23:59:56.209Z,21.48
